createdAt,value
2023-11-10T00:02:11.526Z,7.42
2023-11-10T00:07:18.218Z,7.50
2023-11-10T00:12:21.326Z,7.48
2023-11-10T00:17:24.398Z,7.69
2023-11-10T00:22:32.700Z,7.84
2023-11-10T00:27:35.939Z,7.76
2023-11-10T00:32:40.469Z,7.76
2023-11-10T00:37:45.130Z,7.75
2023-11-10T00:42:48.257Z,7.78
2023-11-10T00:47:51.356Z,7.89
2023-11-10T00:52:55.873Z,7.85
2023-11-10T00:57:59.532Z,7.80
2023-11-10T01:03:05.119Z,7.75
2023-11-10T01:08:09.691Z,7.83
2023-11-10T01:13:15.284Z,7.80
2023-11-10T01:18:19.000Z,7.80
2023-11-10T01:23:23.683Z,7.81
2023-11-10T01:28:27.166Z,7.80
2023-11-10T01:33:30.381Z,8.13
2023-11-10T01:38:36.663Z,7.74
2023-11-10T01:43:39.755Z,7.95
2023-11-10T01:48:42.990Z,7.85
2023-11-10T01:53:47.572Z,7.89
2023-11-10T01:58:50.648Z,7.85
2023-11-10T02:03:54.335Z,7.71
2023-11-10T02:08:58.885Z,7.69
2023-11-10T02:14:05.022Z,7.81
2023-11-10T02:19:16.250Z,7.74
2023-11-10T02:24:22.844Z,7.63
2023-11-10T02:29:27.427Z,7.68
2023-11-10T02:34:30.614Z,7.74
2023-11-10T02:39:33.721Z,7.74
2023-11-10T02:44:38.713Z,7.81
2023-11-10T02:49:42.478Z,7.84
2023-11-10T02:54:45.693Z,7.70
2023-11-10T02:59:50.351Z,7.65
2023-11-10T03:04:53.521Z,7.63
2023-11-10T03:09:56.616Z,7.52
2023-11-10T03:15:01.093Z,7.60
2023-11-10T03:20:04.330Z,7.58
2023-11-10T03:25:08.182Z,7.62
2023-11-10T03:30:13.636Z,7.55
2023-11-10T03:35:16.806Z,7.76
2023-11-10T03:40:21.643Z,7.47
2023-11-10T03:45:26.220Z,7.59
2023-11-10T03:50:29.384Z,7.71
2023-11-10T03:55:33.121Z,7.52
2023-11-10T04:00:46.093Z,7.60
2023-11-10T04:05:52.448Z,7.69
2023-11-10T04:10:57.252Z,7.72
2023-11-10T04:16:01.921Z,7.74
2023-11-10T04:21:05.101Z,7.63
2023-11-10T04:26:08.712Z,7.67
2023-11-10T04:31:15.163Z,7.47
2023-11-10T04:36:19.637Z,7.68
2023-11-10T04:41:23.623Z,7.52
2023-11-10T04:46:28.164Z,7.44
2023-11-10T04:51:32.522Z,7.55
2023-11-10T04:56:45.136Z,7.42
2023-11-10T05:01:50.469Z,7.37
2023-11-10T05:06:54.088Z,7.50
2023-11-10T05:11:58.464Z,7.65
2023-11-10T05:17:02.961Z,7.72
2023-11-10T05:22:09.134Z,7.56
2023-11-10T05:27:13.688Z,7.56
2023-11-10T05:32:18.174Z,7.57
2023-11-10T05:37:22.177Z,7.39
2023-11-10T05:42:25.451Z,7.31
2023-11-10T05:47:29.994Z,7.34
2023-11-10T05:52:33.125Z,7.48
2023-11-10T05:57:37.416Z,7.44
2023-11-10T06:02:43.462Z,7.57
2023-11-10T06:07:48.785Z,7.68
2023-11-10T06:12:52.747Z,7.57
2023-11-10T06:17:57.857Z,7.47
2023-11-10T06:23:01.076Z,7.49
2023-11-10T06:28:04.365Z,7.39
2023-11-10T06:33:08.889Z,7.35
2023-11-10T06:38:12.476Z,7.29
2023-11-10T06:43:15.553Z,7.47
2023-11-10T06:48:20.181Z,7.53
2023-11-10T06:53:23.293Z,7.44
2023-11-10T06:58:26.405Z,7.54
2023-11-10T07:03:31.928Z,7.54
2023-11-10T07:08:36.054Z,7.59
2023-11-10T07:13:39.118Z,7.52
2023-11-10T07:18:43.656Z,7.62
2023-11-10T07:23:46.826Z,7.68
2023-11-10T07:28:50.134Z,7.76
2023-11-10T07:33:54.790Z,7.90
2023-11-10T07:38:57.890Z,8.17
2023-11-10T07:44:01.021Z,8.32
2023-11-10T07:49:06.081Z,8.40
2023-11-10T07:54:09.247Z,8.38
2023-11-10T07:59:12.347Z,8.54
2023-11-10T08:04:17.128Z,8.63
2023-11-10T08:09:22.274Z,8.75
2023-11-10T08:14:26.959Z,9.14
2023-11-10T08:19:31.429Z,8.56
2023-11-10T08:24:34.780Z,8.64
2023-11-10T08:29:37.875Z,8.91
2023-11-10T08:34:42.428Z,9.11
2023-11-10T08:39:45.751Z,9.48
2023-11-10T08:44:49.840Z,9.45
2023-11-10T08:49:57.316Z,9.82
2023-11-10T08:55:01.100Z,9.68
2023-11-10T09:00:04.740Z,9.59
2023-11-10T09:05:11.192Z,9.96
2023-11-10T09:10:14.340Z,9.54
2023-11-10T09:15:17.610Z,9.44
2023-11-10T09:20:22.441Z,9.74
2023-11-10T09:25:25.798Z,9.91
2023-11-10T09:30:29.071Z,10.01
2023-11-10T09:35:35.039Z,10.58
2023-11-10T09:40:38.318Z,9.38
2023-11-10T09:45:44.482Z,9.63
2023-11-10T09:50:51.424Z,9.53
2023-11-10T09:55:56.274Z,9.40
2023-11-10T10:00:59.803Z,9.46
2023-11-10T10:06:04.555Z,9.54
2023-11-10T10:11:08.031Z,10.27
2023-11-10T10:16:12.328Z,9.90
2023-11-10T10:21:17.114Z,9.77
2023-11-10T10:26:20.413Z,9.86
2023-11-10T10:31:23.594Z,9.83
2023-11-10T10:36:28.308Z,9.71
2023-11-10T10:41:33.282Z,9.38
2023-11-10T10:46:37.687Z,9.77
2023-11-10T10:51:42.358Z,9.67
2023-11-10T10:56:46.211Z,9.70
2023-11-10T11:01:50.975Z,9.76
2023-11-10T11:07:24.815Z,9.80
2023-11-10T11:12:52.106Z,9.49
2023-11-10T11:18:06.747Z,9.47
2023-11-10T11:23:14.957Z,9.81
2023-11-10T11:28:27.073Z,9.86
2023-11-10T11:33:30.244Z,10.21
2023-11-10T11:38:36.920Z,10.26
2023-11-10T11:43:50.469Z,10.12
2023-11-10T11:48:53.714Z,10.38
2023-11-10T11:53:58.161Z,10.61
2023-11-10T11:59:01.352Z,10.34
2023-11-10T12:04:04.954Z,10.18
2023-11-10T12:09:09.523Z,10.05
2023-11-10T12:14:13.518Z,9.84
2023-11-10T12:19:19.569Z,9.95
2023-11-10T12:24:27.657Z,10.06
2023-11-10T12:29:31.811Z,10.27
2023-11-10T12:34:38.239Z,10.38
2023-11-10T12:39:44.721Z,10.22
2023-11-10T12:44:56.445Z,11.07
2023-11-10T12:50:00.660Z,10.92
2023-11-10T12:55:05.636Z,10.72
2023-11-10T13:00:10.936Z,10.86
2023-11-10T13:05:15.587Z,10.71
2023-11-10T13:10:20.257Z,11.24
2023-11-10T13:15:23.417Z,10.65
2023-11-10T13:20:29.455Z,11.11
2023-11-10T13:25:34.705Z,10.81
2023-11-10T13:30:37.845Z,11.46
2023-11-10T13:35:41.280Z,11.70
2023-11-10T13:40:46.005Z,11.23
2023-11-10T13:45:49.195Z,11.27
2023-11-10T13:50:52.473Z,11.03
2023-11-10T13:55:56.986Z,10.86
2023-11-10T14:01:00.113Z,10.55
2023-11-10T14:06:09.283Z,10.73
2023-11-10T14:11:14.296Z,10.70
2023-11-10T14:16:17.527Z,10.22
2023-11-10T14:21:23.192Z,9.87
2023-11-10T14:26:27.841Z,9.84
2023-11-10T14:31:31.396Z,9.59
2023-11-10T14:36:34.754Z,9.85
2023-11-10T14:41:39.393Z,9.77
2023-11-10T14:46:42.772Z,9.57
2023-11-10T14:51:53.669Z,9.36
2023-11-10T14:56:58.139Z,9.49
2023-11-10T15:02:02.976Z,9.57
2023-11-10T15:07:06.462Z,9.41
2023-11-10T15:12:12.022Z,9.40
2023-11-10T15:17:15.096Z,9.54
2023-11-10T15:22:18.183Z,9.29
2023-11-10T15:27:23.124Z,9.38
2023-11-10T15:32:26.250Z,9.07
2023-11-10T15:37:32.421Z,9.09
2023-11-10T15:42:37.252Z,9.22
2023-11-10T15:47:40.461Z,9.04
2023-11-10T15:52:43.610Z,8.98
2023-11-10T15:57:49.874Z,9.07
2023-11-10T16:02:53.768Z,8.84
2023-11-10T16:07:57.064Z,8.89
2023-11-10T16:13:01.820Z,8.68
2023-11-10T16:18:05.067Z,8.66
2023-11-10T16:23:08.735Z,8.50
2023-11-10T16:28:15.073Z,8.40
2023-11-10T16:33:18.332Z,8.37
2023-11-10T16:38:21.617Z,8.17
2023-11-10T16:43:26.152Z,8.17
2023-11-10T16:48:29.241Z,8.15
2023-11-10T16:53:32.288Z,8.17
2023-11-10T16:58:36.886Z,7.96
2023-11-10T17:03:40.257Z,7.84
2023-11-10T17:08:44.469Z,7.97
2023-11-10T17:13:48.982Z,8.01
2023-11-10T17:18:52.387Z,7.82
2023-11-10T17:23:55.631Z,7.73
2023-11-10T17:29:01.450Z,7.82
2023-11-10T17:34:06.563Z,7.78
2023-11-10T17:39:10.376Z,7.85
2023-11-10T17:44:15.355Z,7.67
2023-11-10T17:49:18.448Z,7.65
2023-11-10T17:54:21.606Z,7.44
2023-11-10T17:59:26.649Z,7.17
2023-11-10T18:04:29.837Z,7.12
2023-11-10T18:09:33.113Z,7.17
2023-11-10T18:14:38.637Z,7.13
2023-11-10T18:19:42.937Z,7.00
2023-11-10T18:24:47.463Z,7.08
2023-11-10T18:29:52.520Z,7.06
2023-11-10T18:34:55.732Z,7.09
2023-11-10T18:39:59.087Z,7.06
2023-11-10T18:45:04.326Z,6.95
2023-11-10T18:50:09.445Z,6.89
2023-11-10T18:55:13.056Z,6.85
2023-11-10T19:00:18.591Z,6.86
2023-11-10T19:05:23.794Z,6.93
2023-11-10T19:10:28.134Z,6.85
2023-11-10T19:15:32.931Z,6.74
2023-11-10T19:20:37.032Z,6.62
2023-11-10T19:25:40.592Z,6.60
2023-11-10T19:30:45.233Z,6.55
2023-11-10T19:35:49.401Z,6.55
2023-11-10T19:40:52.850Z,6.54
2023-11-10T19:45:57.361Z,6.62
2023-11-10T19:51:01.080Z,6.64
2023-11-10T19:56:04.641Z,6.67
2023-11-10T20:01:09.362Z,6.73
2023-11-10T20:06:12.513Z,6.74
2023-11-10T20:11:19.896Z,6.62
2023-11-10T20:16:25.398Z,6.77
2023-11-10T20:21:28.774Z,6.76
2023-11-10T20:26:31.918Z,6.78
2023-11-10T20:31:36.510Z,6.82
2023-11-10T20:36:39.713Z,6.84
2023-11-10T20:41:43.371Z,6.85
2023-11-10T20:46:48.178Z,6.80
2023-11-10T20:51:51.266Z,6.80
2023-11-10T20:56:54.497Z,6.80
2023-11-10T21:01:59.012Z,6.80
2023-11-10T21:07:02.142Z,6.73
2023-11-10T21:12:06.778Z,6.78
2023-11-10T21:17:11.433Z,6.71
2023-11-10T21:22:14.551Z,6.59
2023-11-10T21:27:17.662Z,6.64
2023-11-10T21:32:22.523Z,6.59
2023-11-10T21:37:25.694Z,6.57
2023-11-10T21:42:28.841Z,6.62
2023-11-10T21:47:34.498Z,6.64
2023-11-10T21:52:37.627Z,6.66
2023-11-10T21:57:41.681Z,6.60
2023-11-10T22:02:46.297Z,6.59
2023-11-10T22:07:49.519Z,6.71
2023-11-10T22:12:53.785Z,6.57
2023-11-10T22:17:58.263Z,6.90
2023-11-10T22:23:01.792Z,6.59
2023-11-10T22:28:05.590Z,6.65
2023-11-10T22:33:10.183Z,6.71
2023-11-10T22:38:13.294Z,6.65
2023-11-10T22:43:16.803Z,6.65
2023-11-10T22:48:21.375Z,6.68
2023-11-10T22:53:24.571Z,6.86
2023-11-10T22:58:27.626Z,6.89
2023-11-10T23:03:32.316Z,6.69
2023-11-10T23:08:35.451Z,6.70
2023-11-10T23:13:42.199Z,6.79
2023-11-10T23:18:47.214Z,6.76
2023-11-10T23:23:50.657Z,6.71
2023-11-10T23:28:53.735Z,6.74
2023-11-10T23:33:58.237Z,6.90
2023-11-10T23:39:01.460Z,7.21
2023-11-10T23:44:04.723Z,6.92
2023-11-10T23:49:09.827Z,6.95
2023-11-10T23:54:13.122Z,6.88
2023-11-10T23:59:16.426Z,6.80
